createdAt,value
2022-11-05T00:01:35.607Z,7.75
2022-11-05T00:04:55.680Z,7.97
2022-11-05T00:08:18.502Z,7.75
2022-11-05T00:11:40.132Z,7.23
2022-11-05T00:15:05.147Z,7.93
2022-11-05T00:18:06.774Z,7.30
2022-11-05T00:21:28.431Z,8.88
2022-11-05T00:24:48.322Z,7.40
2022-11-05T00:27:52.224Z,7.05
2022-11-05T00:30:54.950Z,8.80
2022-11-05T00:33:56.512Z,11.23
2022-11-05T00:36:58.221Z,9.07
2022-11-05T00:39:59.857Z,9.05
2022-11-05T00:43:20.221Z,9.73
2022-11-05T00:46:21.799Z,8.35
2022-11-05T00:49:32.389Z,8.00
2022-11-05T00:52:52.828Z,6.55
2022-11-05T00:55:54.570Z,6.50
2022-11-05T00:58:56.423Z,7.60
2022-11-05T01:01:58.392Z,8.13
2022-11-05T01:05:00.154Z,7.20
2022-11-05T01:08:02.133Z,7.93
2022-11-05T01:11:13.074Z,9.65
2022-11-05T01:14:16.137Z,10.20
2022-11-05T01:17:17.753Z,9.68
2022-11-05T01:20:19.649Z,10.55
2022-11-05T01:23:21.554Z,10.90
2022-11-05T01:26:23.434Z,10.07
2022-11-05T01:29:25.366Z,10.13
2022-11-05T01:32:26.973Z,9.38
2022-11-05T01:35:29.005Z,7.72
2022-11-05T01:38:30.612Z,8.40
2022-11-05T01:41:32.333Z,8.10
2022-11-05T01:44:58.750Z,8.35
2022-11-05T01:48:03.471Z,8.85
2022-11-05T01:51:08.078Z,9.00
2022-11-05T01:54:14.701Z,10.13
2022-11-05T01:57:16.631Z,12.25
2022-11-05T02:00:18.568Z,12.63
2022-11-05T02:03:20.350Z,12.30
2022-11-05T02:06:21.984Z,11.32
2022-11-05T02:09:29.597Z,11.18
2022-11-05T02:12:33.292Z,12.38
2022-11-05T02:15:51.901Z,12.13
2022-11-05T02:19:01.332Z,13.07
2022-11-05T02:22:05.937Z,12.82
2022-11-05T02:25:39.808Z,12.25
2022-11-05T02:29:06.171Z,14.23
2022-11-05T02:32:32.997Z,13.75
2022-11-05T02:36:12.341Z,13.05
2022-11-05T02:39:32.729Z,13.13
2022-11-05T02:43:25.050Z,13.13
2022-11-05T02:46:39.370Z,13.27
2022-11-05T02:50:14.530Z,11.80
2022-11-05T02:53:19.453Z,12.90
2022-11-05T02:56:25.625Z,12.95
2022-11-05T02:59:27.210Z,12.40
2022-11-05T03:02:29.143Z,11.32
2022-11-05T03:05:42.148Z,12.32
2022-11-05T03:09:06.673Z,10.98
2022-11-05T03:12:21.695Z,11.05
2022-11-05T03:15:58.786Z,9.35
2022-11-05T03:19:13.074Z,10.32
2022-11-05T03:22:20.835Z,9.10
2022-11-05T03:25:26.076Z,8.95
2022-11-05T03:28:31.286Z,9.40
2022-11-05T03:31:35.386Z,9.13
2022-11-05T03:34:46.421Z,9.43
2022-11-05T03:37:51.146Z,9.02
2022-11-05T03:40:56.213Z,8.63
2022-11-05T03:44:01.747Z,9.73
2022-11-05T03:47:11.365Z,9.73
2022-11-05T03:50:41.515Z,9.30
2022-11-05T03:53:49.081Z,9.27
2022-11-05T03:57:20.311Z,8.55
2022-11-05T04:00:23.446Z,8.48
2022-11-05T04:03:24.994Z,9.60
2022-11-05T04:06:45.577Z,8.18
2022-11-05T04:10:05.763Z,8.75
2022-11-05T04:13:26.459Z,10.13
2022-11-05T04:16:46.531Z,9.98
2022-11-05T04:20:06.973Z,8.98
2022-11-05T04:23:28.693Z,9.30
2022-11-05T04:26:30.325Z,8.25
2022-11-05T04:29:50.474Z,8.57
2022-11-05T04:33:16.413Z,8.25
2022-11-05T04:36:19.554Z,8.68
2022-11-05T04:39:21.585Z,9.07
2022-11-05T04:42:23.182Z,8.30
2022-11-05T04:45:26.185Z,7.63
2022-11-05T04:48:27.721Z,7.28
2022-11-05T04:51:29.301Z,8.20
2022-11-05T04:54:31.230Z,10.45
2022-11-05T04:57:32.896Z,9.57
2022-11-05T05:00:34.631Z,9.05
2022-11-05T05:03:36.263Z,9.45
2022-11-05T05:06:38.436Z,7.97
2022-11-05T05:09:40.107Z,8.50
2022-11-05T05:12:41.852Z,7.90
2022-11-05T05:15:43.445Z,9.80
2022-11-05T05:18:46.370Z,8.05
2022-11-05T05:21:48.257Z,9.00
2022-11-05T05:24:52.777Z,9.48
2022-11-05T05:27:57.987Z,11.88
2022-11-05T05:31:00.747Z,10.80
2022-11-05T05:34:03.048Z,10.75
2022-11-05T05:37:05.093Z,10.15
2022-11-05T05:40:07.438Z,8.88
2022-11-05T05:43:09.464Z,9.15
2022-11-05T05:46:13.745Z,13.50
2022-11-05T05:49:15.356Z,13.07
2022-11-05T05:52:16.894Z,16.02
2022-11-05T05:55:18.581Z,9.65
2022-11-05T05:58:20.285Z,8.50
2022-11-05T06:01:22.105Z,9.80
2022-11-05T06:04:24.042Z,9.05
2022-11-05T06:07:25.663Z,8.50
2022-11-05T06:10:27.387Z,10.07
2022-11-05T06:13:29.471Z,10.30
2022-11-05T06:16:35.757Z,11.32
2022-11-05T06:19:37.457Z,10.95
2022-11-05T06:22:39.507Z,17.10
2022-11-05T06:25:41.604Z,20.65
2022-11-05T06:28:43.984Z,18.98
2022-11-05T06:31:45.609Z,13.73
2022-11-05T06:34:47.367Z,11.25
2022-11-05T06:37:48.979Z,10.52
2022-11-05T06:40:50.611Z,8.95
2022-11-05T06:43:52.211Z,8.90
2022-11-05T06:46:53.832Z,9.05
2022-11-05T06:49:57.418Z,9.48
2022-11-05T06:53:01.910Z,16.30
2022-11-05T06:56:07.721Z,11.10
2022-11-05T06:59:09.283Z,10.93
2022-11-05T07:02:13.832Z,13.18
2022-11-05T07:05:16.544Z,13.23
2022-11-05T07:08:18.167Z,14.35
2022-11-05T07:11:20.045Z,16.67
2022-11-05T07:14:21.771Z,23.08
2022-11-05T07:17:23.818Z,13.65
2022-11-05T07:20:30.753Z,10.20
2022-11-05T07:23:35.083Z,14.35
2022-11-05T07:26:36.743Z,17.45
2022-11-05T07:29:38.307Z,16.67
2022-11-05T07:32:40.887Z,9.93
2022-11-05T07:35:42.541Z,9.47
2022-11-05T07:38:44.326Z,35.55
2022-11-05T07:41:45.933Z,15.70
2022-11-05T07:44:47.485Z,11.48
2022-11-05T07:47:50.815Z,9.98
2022-11-05T07:50:53.426Z,16.02
2022-11-05T07:53:55.200Z,8.77
2022-11-05T07:56:57.302Z,40.35
2022-11-05T07:59:58.898Z,17.17
2022-11-05T08:03:10.475Z,11.02
2022-11-05T08:06:12.294Z,14.00
2022-11-05T08:09:13.904Z,37.25
2022-11-05T08:12:15.526Z,20.67
2022-11-05T08:15:17.324Z,19.90
2022-11-05T08:18:18.942Z,13.38
2022-11-05T08:21:20.977Z,7.72
2022-11-05T08:24:24.391Z,6.50
2022-11-05T08:27:26.988Z,6.28
2022-11-05T08:30:29.813Z,6.22
2022-11-05T08:33:31.568Z,5.65
2022-11-05T08:36:34.916Z,5.78
2022-11-05T08:39:36.463Z,6.97
2022-11-05T08:42:38.103Z,6.57
2022-11-05T08:45:41.180Z,5.90
2022-11-05T08:48:42.748Z,6.90
2022-11-05T08:51:45.082Z,6.53
2022-11-05T08:54:46.782Z,6.43
2022-11-05T08:57:48.685Z,6.43
2022-11-05T09:00:50.419Z,6.88
2022-11-05T09:03:52.655Z,6.90
2022-11-05T09:06:54.211Z,8.20
2022-11-05T09:09:55.845Z,8.40
2022-11-05T09:12:57.517Z,7.40
2022-11-05T09:15:59.867Z,7.80
2022-11-05T09:19:03.432Z,7.73
2022-11-05T09:22:05.480Z,10.88
2022-11-05T09:25:07.966Z,6.47
2022-11-05T09:28:17.126Z,6.30
2022-11-05T09:31:18.996Z,6.68
2022-11-05T09:34:20.631Z,7.15
2022-11-05T09:37:22.787Z,6.60
2022-11-05T09:40:25.756Z,6.50
2022-11-05T09:43:47.484Z,6.15
2022-11-05T09:46:58.996Z,5.95
2022-11-05T09:50:04.124Z,5.90
2022-11-05T09:53:05.944Z,5.75
2022-11-05T09:56:19.202Z,5.43
2022-11-05T09:59:33.173Z,5.40
2022-11-05T10:02:42.218Z,5.95
2022-11-05T10:05:45.182Z,5.88
2022-11-05T10:08:52.934Z,5.63
2022-11-05T10:12:17.901Z,5.45
2022-11-05T10:15:27.410Z,5.20
2022-11-05T10:18:34.666Z,5.20
2022-11-05T10:22:04.891Z,4.82
2022-11-05T10:25:00.415Z,4.25
2022-11-05T10:28:04.553Z,4.60
2022-11-05T10:31:09.130Z,4.97
2022-11-05T10:34:13.706Z,3.95
2022-11-05T10:37:15.363Z,5.00
2022-11-05T10:40:43.625Z,4.88
2022-11-05T10:43:49.475Z,4.15
2022-11-05T10:47:21.710Z,4.40
2022-11-05T10:50:27.047Z,4.70
2022-11-05T10:53:35.713Z,4.70
2022-11-05T10:56:39.412Z,4.65
2022-11-05T10:59:41.771Z,3.80
2022-11-05T11:02:45.831Z,3.47
2022-11-05T11:05:47.556Z,3.45
2022-11-05T11:08:51.127Z,4.25
2022-11-05T11:12:02.462Z,4.30
2022-11-05T11:15:24.857Z,4.00
2022-11-05T11:18:52.732Z,3.30
2022-11-05T11:22:03.549Z,2.70
2022-11-05T11:25:25.703Z,3.60
2022-11-05T11:28:37.232Z,3.20
2022-11-05T11:31:40.197Z,2.85
2022-11-05T11:34:44.005Z,2.90
2022-11-05T11:37:46.432Z,3.15
2022-11-05T11:40:48.269Z,2.78
2022-11-05T11:43:55.889Z,2.70
2022-11-05T11:47:02.050Z,2.65
2022-11-05T11:50:03.857Z,2.70
2022-11-05T11:53:20.551Z,1.98
2022-11-05T11:56:22.168Z,2.67
2022-11-05T11:59:53.828Z,2.70
2022-11-05T12:03:30.175Z,2.65
2022-11-05T12:07:05.053Z,1.65
2022-11-05T12:10:33.785Z,2.10
2022-11-05T12:13:49.773Z,1.40
2022-11-05T12:17:07.299Z,1.27
2022-11-05T12:20:09.018Z,1.20
2022-11-05T12:23:49.110Z,1.58
2022-11-05T12:27:28.213Z,1.30
2022-11-05T12:31:14.519Z,1.25
2022-11-05T12:34:37.138Z,1.30
2022-11-05T12:38:20.273Z,1.10
2022-11-05T12:41:47.895Z,1.55
2022-11-05T12:44:52.389Z,1.70
2022-11-05T12:48:15.672Z,1.35
2022-11-05T12:51:29.403Z,1.40
2022-11-05T12:54:47.883Z,1.63
2022-11-05T12:57:53.302Z,2.00
2022-11-05T13:01:00.441Z,1.63
2022-11-05T13:04:13.729Z,1.50
2022-11-05T13:10:27.834Z,1.60
2022-11-05T13:13:33.535Z,1.30
2022-11-05T13:16:39.460Z,1.90
2022-11-05T13:19:50.208Z,1.60
2022-11-05T13:22:51.996Z,1.70
2022-11-05T13:26:00.276Z,1.70
2022-11-05T13:29:07.847Z,1.42
2022-11-05T13:32:24.601Z,1.33
2022-11-05T13:35:31.678Z,1.42
2022-11-05T13:38:51.978Z,1.10
2022-11-05T13:42:26.205Z,1.30
2022-11-05T13:45:57.360Z,1.50
2022-11-05T13:49:24.518Z,1.17
2022-11-05T13:52:47.246Z,1.42
2022-11-05T13:56:13.844Z,1.10
2022-11-05T13:59:27.594Z,0.88
2022-11-05T14:02:38.665Z,1.10
2022-11-05T14:05:42.840Z,1.10
2022-11-05T14:08:46.329Z,0.90
2022-11-05T14:11:52.439Z,0.98
2022-11-05T14:15:00.283Z,1.55
2022-11-05T14:18:03.522Z,0.73
2022-11-05T14:21:06.767Z,1.05
2022-11-05T14:27:25.535Z,1.17
2022-11-05T14:30:47.047Z,0.90
2022-11-05T14:34:18.726Z,1.35
2022-11-05T14:37:29.733Z,1.00
2022-11-05T14:40:39.640Z,0.90
2022-11-05T14:43:47.576Z,1.10
2022-11-05T14:46:51.303Z,0.90
2022-11-05T14:49:58.552Z,0.90
2022-11-05T14:53:10.630Z,1.35
2022-11-05T14:56:16.233Z,1.60
2022-11-05T14:59:23.708Z,1.50
2022-11-05T15:02:31.421Z,1.38
2022-11-05T15:05:48.370Z,1.73
2022-11-05T15:08:49.905Z,1.42
2022-11-05T15:12:03.900Z,1.40
2022-11-05T15:15:23.528Z,1.55
2022-11-05T15:18:30.581Z,1.50
2022-11-05T15:21:36.007Z,1.80
2022-11-05T15:24:41.580Z,1.60
2022-11-05T15:27:49.091Z,3.22
2022-11-05T15:31:03.329Z,1.75
2022-11-05T15:34:32.105Z,1.98
2022-11-05T15:37:34.064Z,2.17
2022-11-05T15:40:35.650Z,1.83
2022-11-05T15:43:47.736Z,2.85
2022-11-05T15:47:05.378Z,3.00
2022-11-05T15:50:15.135Z,2.33
2022-11-05T15:53:47.471Z,2.00
2022-11-05T15:56:53.285Z,3.00
2022-11-05T15:59:55.015Z,2.55
2022-11-05T16:03:22.793Z,2.35
2022-11-05T16:06:37.783Z,3.38
2022-11-05T16:09:43.687Z,5.72
2022-11-05T16:12:45.352Z,18.70
2022-11-05T16:15:58.369Z,8.93
2022-11-05T16:19:00.829Z,9.48
2022-11-05T16:22:04.480Z,10.03
2022-11-05T16:25:31.598Z,11.35
2022-11-05T16:28:33.405Z,9.05
2022-11-05T16:31:35.155Z,9.02
2022-11-05T16:34:42.681Z,9.05
2022-11-05T16:37:49.136Z,5.80
2022-11-05T16:40:53.342Z,5.05
2022-11-05T16:44:00.142Z,4.15
2022-11-05T16:47:01.700Z,3.40
2022-11-05T16:50:31.569Z,3.50
2022-11-05T16:53:33.200Z,3.85
2022-11-05T16:56:35.634Z,3.42
2022-11-05T16:59:37.338Z,3.57
2022-11-05T17:02:39.111Z,3.83
2022-11-05T17:05:41.101Z,4.55
2022-11-05T17:08:45.875Z,3.67
2022-11-05T17:11:47.401Z,4.85
2022-11-05T17:14:49.174Z,5.68
2022-11-05T17:17:52.520Z,4.65
2022-11-05T17:20:55.060Z,4.13
2022-11-05T17:23:56.698Z,3.60
2022-11-05T17:26:58.247Z,3.45
2022-11-05T17:30:00.020Z,4.00
2022-11-05T17:33:02.043Z,7.03
2022-11-05T17:36:13.963Z,13.00
2022-11-05T17:39:15.680Z,16.27
2022-11-05T17:42:17.250Z,14.82
2022-11-05T17:45:18.825Z,11.15
2022-11-05T17:48:21.541Z,8.27
2022-11-05T17:51:23.226Z,6.95
2022-11-05T17:54:25.102Z,8.63
2022-11-05T17:57:27.774Z,8.75
2022-11-05T18:00:29.529Z,8.00
2022-11-05T18:03:31.549Z,7.72
2022-11-05T18:06:33.178Z,10.82
2022-11-05T18:09:34.924Z,15.57
2022-11-05T18:12:37.276Z,10.50
2022-11-05T18:15:41.238Z,8.50
2022-11-05T18:18:43.086Z,17.50
2022-11-05T18:21:44.679Z,31.40
2022-11-05T18:24:46.848Z,34.97
2022-11-05T18:27:48.397Z,26.63
2022-11-05T18:30:49.978Z,15.18
2022-11-05T18:33:56.156Z,9.38
2022-11-05T18:36:57.968Z,9.27
2022-11-05T18:39:59.555Z,9.55
2022-11-05T18:43:01.160Z,9.40
2022-11-05T18:46:02.826Z,11.73
2022-11-05T18:49:04.797Z,10.43
2022-11-05T18:52:06.656Z,10.52
2022-11-05T18:55:08.858Z,7.50
2022-11-05T18:58:10.727Z,6.30
2022-11-05T19:01:15.100Z,11.82
2022-11-05T19:04:16.705Z,11.50
2022-11-05T19:07:19.241Z,8.15
2022-11-05T19:10:20.924Z,9.67
2022-11-05T19:13:22.535Z,7.63
2022-11-05T19:16:27.550Z,4.70
2022-11-05T19:19:29.278Z,4.50
2022-11-05T19:22:31.596Z,5.13
2022-11-05T19:25:33.235Z,4.47
2022-11-05T19:28:34.939Z,4.47
2022-11-05T19:31:37.050Z,4.35
2022-11-05T19:34:38.703Z,5.20
2022-11-05T19:37:40.311Z,4.82
2022-11-05T19:40:41.920Z,5.30
2022-11-05T19:43:43.928Z,4.82
2022-11-05T19:46:45.705Z,7.45
2022-11-05T19:49:47.311Z,7.45
2022-11-05T19:52:48.848Z,15.55
2022-11-05T19:55:50.970Z,11.90
2022-11-05T19:58:54.206Z,13.38
2022-11-05T20:01:55.824Z,9.63
2022-11-05T20:04:57.553Z,11.90
2022-11-05T20:07:59.346Z,5.93
2022-11-05T20:11:01.019Z,6.25
2022-11-05T20:14:04.730Z,5.38
2022-11-05T20:17:06.344Z,5.82
2022-11-05T20:20:08.390Z,5.90
2022-11-05T20:23:10.314Z,6.47
2022-11-05T20:26:12.733Z,8.45
2022-11-05T20:29:14.589Z,8.40
2022-11-05T20:32:16.266Z,8.60
2022-11-05T20:35:18.047Z,7.28
2022-11-05T20:38:19.638Z,8.05
2022-11-05T20:41:21.527Z,9.35
2022-11-05T20:44:23.258Z,9.55
2022-11-05T20:47:24.852Z,9.88
2022-11-05T20:50:27.506Z,8.95
2022-11-05T20:53:29.170Z,8.88
2022-11-05T20:56:32.963Z,9.52
2022-11-05T20:59:34.612Z,9.45
2022-11-05T21:02:38.860Z,9.73
2022-11-05T21:05:45.660Z,8.05
2022-11-05T21:08:48.977Z,8.48
2022-11-05T21:15:11.326Z,6.93
2022-11-05T21:18:13.628Z,7.38
2022-11-05T21:21:20.211Z,7.70
2022-11-05T21:24:21.898Z,8.07
2022-11-05T21:27:24.473Z,7.93
2022-11-05T21:30:26.050Z,12.97
2022-11-05T21:33:27.964Z,8.52
2022-11-05T21:36:29.582Z,8.10
2022-11-05T21:39:33.832Z,7.60
2022-11-05T21:42:35.525Z,7.18
2022-11-05T21:45:44.407Z,7.95
2022-11-05T21:48:45.950Z,7.47
2022-11-05T21:52:06.301Z,8.32
2022-11-05T21:55:43.333Z,7.70
2022-11-05T21:59:03.287Z,8.02
2022-11-05T22:02:05.733Z,7.90
2022-11-05T22:05:08.383Z,7.20
2022-11-05T22:08:10.288Z,23.65
2022-11-05T22:11:12.365Z,6.68
2022-11-05T22:14:14.028Z,7.65
2022-11-05T22:17:16.291Z,9.93
2022-11-05T22:20:18.055Z,7.78
2022-11-05T22:23:19.841Z,8.30
2022-11-05T22:26:21.590Z,6.15
2022-11-05T22:29:23.258Z,5.90
2022-11-05T22:32:26.347Z,7.05
2022-11-05T22:35:28.424Z,6.30
2022-11-05T22:38:30.853Z,5.30
2022-11-05T22:41:32.714Z,4.93
2022-11-05T22:44:34.501Z,5.18
2022-11-05T22:47:36.235Z,4.80
2022-11-05T22:50:38.096Z,5.25
2022-11-05T22:53:40.625Z,5.30
2022-11-05T22:56:42.939Z,5.60
2022-11-05T22:59:44.906Z,5.55
2022-11-05T23:02:46.622Z,5.55
2022-11-05T23:06:02.939Z,5.40
2022-11-05T23:09:29.083Z,5.68
2022-11-05T23:12:37.869Z,5.68
2022-11-05T23:15:58.205Z,5.40
2022-11-05T23:19:18.199Z,6.80
2022-11-05T23:22:44.385Z,5.68
2022-11-05T23:25:46.162Z,5.53
2022-11-05T23:28:47.778Z,5.82
2022-11-05T23:32:08.564Z,5.78
2022-11-05T23:35:10.904Z,6.15
2022-11-05T23:38:31.455Z,6.30
2022-11-05T23:41:51.744Z,6.03
2022-11-05T23:45:14.560Z,5.97
2022-11-05T23:48:26.038Z,7.32
2022-11-05T23:51:27.749Z,6.28
2022-11-05T23:54:31.067Z,5.95
2022-11-05T23:57:32.800Z,5.45
